Time;durP1;ratioP1;P1;durP2;ratioP2;P2;SDS_P1;SDS_P2;PMS_P1;PMS_P2;Temp;Humidity;BMP_temperature;BMP_pressure;BME280_temperature;BME280_humidity;BME280_pressure;Samples;Min_cycle;Max_cycle;Signal;HPM_P1;HPM_P2
2022/09/27 00:02:14;;;;;;;13.90;5.90;;;;;;;;;;5050338;28;20429;-46
2022/09/27 00:04:40;;;;;;;12.20;5.70;;;;;;;;;;5051372;28;20414;-49
2022/09/27 00:07:09;;;;;;;11.33;5.80;;;;;;;;;;5052000;28;20448;-46
2022/09/27 00:09:35;;;;;;;13.23;6.30;;;;;;;;;;5040850;28;20414;-48
2022/09/27 00:12:01;;;;;;;8.37;6.00;;;;;;;;;;5038881;28;20417;-48
2022/09/27 00:14:27;;;;;;;9.03;5.07;;;;;;;;;;5045555;28;20421;-47
2022/09/27 00:16:53;;;;;;;16.23;6.90;;;;;;;;;;5040471;28;20456;-46
2022/09/27 00:19:22;;;;;;;10.30;6.03;;;;;;;;;;5031327;28;20418;-46
2022/09/27 00:21:49;;;;;;;9.40;6.33;;;;;;;;;;5032699;28;20468;-46
2022/09/27 00:24:17;;;;;;;9.60;6.93;;;;;;;;;;5032299;28;20469;-46
2022/09/27 00:26:45;;;;;;;14.83;7.43;;;;;;;;;;5035066;28;20459;-46
2022/09/27 00:29:13;;;;;;;16.13;7.80;;;;;;;;;;5050708;28;20425;-46
2022/09/27 00:31:39;;;;;;;13.23;7.60;;;;;;;;;;5035777;28;20456;-46
2022/09/27 00:34:06;;;;;;;18.73;8.30;;;;;;;;;;5045642;28;20764;-47
2022/09/27 00:36:32;;;;;;;14.20;9.07;;;;;;;;;;5051510;28;21120;-48
2022/09/27 00:38:59;;;;;;;21.30;8.10;;;;;;;;;;5049286;28;20448;-46
2022/09/27 00:41:30;;;;;;;11.03;8.63;;;;;;;;;;5051742;28;20406;-46
2022/09/27 00:44:00;;;;;;;14.63;7.03;;;;;;;;;;5038494;28;20441;-47
2022/09/27 00:46:40;;;;;;;15.13;8.13;;;;;;;;;;5051497;28;20540;-46
2022/09/27 00:49:18;;;;;;;12.03;6.70;;;;;;;;;;5051040;28;20405;-46
2022/09/27 00:51:45;;;;;;;19.50;7.17;;;;;;;;;;5051819;28;20397;-46
2022/09/27 00:54:13;;;;;;;16.10;5.90;;;;;;;;;;5051307;28;20404;-48
2022/09/27 00:56:39;;;;;;;11.93;5.70;;;;;;;;;;5050885;28;20941;-47
2022/09/27 00:59:12;;;;;;;10.50;4.57;;;;;;;;;;5049411;28;20421;-48
2022/09/27 01:01:39;;;;;;;10.60;5.17;;;;;;;;;;5050695;28;20893;-46
2022/09/27 01:04:09;;;;;;;11.20;5.70;;;;;;;;;;5036720;28;20432;-46
2022/09/27 01:06:36;;;;;;;21.60;5.40;;;;;;;;;;5046431;28;20825;-48
2022/09/27 01:09:02;;;;;;;8.90;4.90;;;;;;;;;;5036452;28;20447;-46
2022/09/27 01:11:47;;;;;;;19.70;6.33;;;;;;;;;;5050772;28;20814;-47
2022/09/27 01:14:27;;;;;;;8.80;5.80;;;;;;;;;;5034904;28;20406;-47
2022/09/27 01:16:53;;;;;;;18.30;6.77;;;;;;;;;;5034434;28;20439;-46
2022/09/27 01:19:33;;;;;;;17.60;7.20;;;;;;;;;;5043010;28;20410;-48
2022/09/27 01:22:05;;;;;;;20.10;6.90;;;;;;;;;;5030915;28;20414;-47
2022/09/27 01:24:37;;;;;;;10.63;6.43;;;;;;;;;;5031448;28;20763;-46
2022/09/27 01:27:17;;;;;;;19.23;7.70;;;;;;;;;;5031670;28;20519;-46
2022/09/27 01:29:55;;;;;;;15.83;8.67;;;;;;;;;;5050302;28;20413;-48
2022/09/27 01:32:34;;;;;;;16.83;7.37;;;;;;;;;;5047250;28;20543;-47
2022/09/27 01:35:13;;;;;;;12.63;7.40;;;;;;;;;;5030243;28;20844;-45
2022/09/27 01:37:59;;;;;;;24.93;8.23;;;;;;;;;;5041606;28;20539;-47
2022/09/27 01:40:36;;;;;;;13.23;7.73;;;;;;;;;;5037857;28;20418;-46
2022/09/27 01:43:20;;;;;;;22.47;8.57;;;;;;;;;;5030569;28;20421;-46
2022/09/27 01:45:52;;;;;;;25.53;7.67;;;;;;;;;;5046615;28;20413;-46
2022/09/27 01:48:21;;;;;;;17.43;7.83;;;;;;;;;;5035623;28;20461;-46
2022/09/27 01:51:03;;;;;;;23.60;9.57;;;;;;;;;;5045078;28;20787;-46
2022/09/27 01:53:50;;;;;;;22.70;10.07;;;;;;;;;;5051931;28;20413;-46
2022/09/27 01:56:18;;;;;;;17.30;10.00;;;;;;;;;;5053302;28;20411;-46
2022/09/27 01:58:48;;;;;;;23.83;10.60;;;;;;;;;;5045521;28;20766;-45
2022/09/27 02:01:16;;;;;;;24.20;13.00;;;;;;;;;;5034264;28;20424;-46
2022/09/27 02:03:45;;;;;;;28.73;13.80;;;;;;;;;;5041769;28;20944;-46
2022/09/27 02:06:15;;;;;;;30.60;14.20;;;;;;;;;;5040986;28;20463;-46
2022/09/27 02:08:47;;;;;;;26.60;15.20;;;;;;;;;;5051523;28;20409;-46
2022/09/27 02:11:17;;;;;;;24.97;14.40;;;;;;;;;;5035110;28;20446;-46
2022/09/27 02:14:04;;;;;;;34.33;17.13;;;;;;;;;;5034791;28;20410;-46
2022/09/27 02:16:41;;;;;;;38.33;18.10;;;;;;;;;;5043192;28;20409;-46
2022/09/27 02:19:13;;;;;;;41.60;19.37;;;;;;;;;;5050137;28;20784;-48
2022/09/27 02:22:02;;;;;;;33.87;19.50;;;;;;;;;;5041854;28;20417;-48
2022/09/27 02:24:45;;;;;;;46.97;19.30;;;;;;;;;;5049931;28;20425;-46
2022/09/27 02:27:31;;;;;;;39.63;17.23;;;;;;;;;;5033978;28;20453;-47
2022/09/27 02:30:28;;;;;;;41.47;17.77;;;;;;;;;;5039769;28;20429;-46
2022/09/27 02:32:59;;;;;;;31.20;17.90;;;;;;;;;;5034012;28;20437;-45
2022/09/27 02:35:28;;;;;;;39.13;17.83;;;;;;;;;;5043625;28;20410;-46
2022/09/27 02:37:56;;;;;;;43.53;18.27;;;;;;;;;;5052951;28;20913;-47
2022/09/27 02:40:22;;;;;;;32.23;16.40;;;;;;;;;;5048885;28;20419;-48
2022/09/27 02:42:49;;;;;;;33.73;16.97;;;;;;;;;;5052467;28;20917;-46
2022/09/27 02:45:18;;;;;;;31.60;14.63;;;;;;;;;;5035857;28;20918;-47
2022/09/27 02:47:50;;;;;;;24.20;13.80;;;;;;;;;;5050633;28;20547;-46
2022/09/27 02:50:33;;;;;;;22.80;13.17;;;;;;;;;;5032507;28;20414;-48
2022/09/27 02:53:11;;;;;;;34.60;13.40;;;;;;;;;;5042622;28;20500;-46
2022/09/27 02:56:00;;;;;;;17.80;11.67;;;;;;;;;;5033262;28;20417;-47
2022/09/27 02:58:45;;;;;;;26.60;14.47;;;;;;;;;;5034664;28;20446;-45
2022/09/27 03:01:16;;;;;;;31.57;12.40;;;;;;;;;;5051910;28;20413;-46
2022/09/27 03:03:47;;;;;;;20.40;13.33;;;;;;;;;;5046947;28;20430;-46
2022/09/27 03:06:16;;;;;;;22.10;11.00;;;;;;;;;;5043941;28;20502;-47
2022/09/27 03:08:43;;;;;;;20.80;10.80;;;;;;;;;;5035993;28;20441;-46
2022/09/27 03:11:09;;;;;;;18.07;10.00;;;;;;;;;;5052222;28;20855;-46
2022/09/27 03:13:37;;;;;;;19.60;9.83;;;;;;;;;;5051299;28;20505;-48
2022/09/27 03:16:05;;;;;;;15.43;9.40;;;;;;;;;;5050478;28;20412;-47
2022/09/27 03:18:31;;;;;;;15.43;8.93;;;;;;;;;;5031954;28;20458;-47
2022/09/27 03:20:57;;;;;;;17.27;9.60;;;;;;;;;;5046557;28;20422;-46
2022/09/27 03:23:23;;;;;;;19.43;8.67;;;;;;;;;;5033240;28;20480;-46
2022/09/27 03:25:50;;;;;;;18.17;9.60;;;;;;;;;;5031980;28;20430;-47
2022/09/27 03:28:17;;;;;;;20.33;10.27;;;;;;;;;;5046212;28;20467;-48
2022/09/27 03:30:58;;;;;;;15.37;9.50;;;;;;;;;;5036241;28;20422;-48
2022/09/27 03:33:24;;;;;;;18.17;10.77;;;;;;;;;;5030605;28;20416;-46
2022/09/27 03:35:50;;;;;;;20.80;10.60;;;;;;;;;;5032232;28;20413;-47
2022/09/27 03:38:16;;;;;;;17.37;10.37;;;;;;;;;;5033250;28;20966;-47
2022/09/27 03:40:43;;;;;;;16.33;8.47;;;;;;;;;;5050436;28;20417;-46
2022/09/27 03:43:09;;;;;;;12.80;9.20;;;;;;;;;;5051985;28;20404;-47
2022/09/27 03:45:35;;;;;;;12.77;6.73;;;;;;;;;;5034966;28;20422;-46
2022/09/27 03:48:01;;;;;;;16.23;6.73;;;;;;;;;;5042931;28;21015;-46
2022/09/27 03:50:27;;;;;;;11.23;6.20;;;;;;;;;;5037336;28;20421;-48
2022/09/27 03:52:53;;;;;;;14.90;6.60;;;;;;;;;;5051361;28;20420;-46
2022/09/27 03:55:19;;;;;;;17.13;6.47;;;;;;;;;;5046738;28;20421;-46
2022/09/27 03:57:45;;;;;;;9.90;6.37;;;;;;;;;;5050630;28;20516;-46
2022/09/27 04:00:12;;;;;;;14.67;6.63;;;;;;;;;;5033989;28;20448;-47
2022/09/27 04:02:38;;;;;;;7.57;6.43;;;;;;;;;;5039288;28;20588;-46
2022/09/27 04:05:04;;;;;;;13.37;6.00;;;;;;;;;;5039758;28;20459;-46
2022/09/27 04:07:30;;;;;;;8.00;5.60;;;;;;;;;;5046141;28;20992;-47
2022/09/27 04:09:56;;;;;;;11.30;6.40;;;;;;;;;;5034302;28;20413;-45
2022/09/27 04:12:23;;;;;;;13.90;9.23;;;;;;;;;;5051131;28;20780;-46
2022/09/27 04:14:49;;;;;;;17.03;7.00;;;;;;;;;;5041671;28;20414;-46
2022/09/27 04:17:15;;;;;;;12.00;7.00;;;;;;;;;;5039356;28;20853;-46
2022/09/27 04:19:41;;;;;;;15.73;6.63;;;;;;;;;;5034031;28;20533;-46
2022/09/27 04:22:07;;;;;;;19.53;8.30;;;;;;;;;;5050673;28;20431;-46
2022/09/27 04:24:33;;;;;;;26.27;10.30;;;;;;;;;;5043926;28;20802;-46
2022/09/27 04:26:59;;;;;;;20.10;11.13;;;;;;;;;;5039194;28;20463;-46
2022/09/27 04:29:25;;;;;;;20.47;10.90;;;;;;;;;;5030024;28;20413;-47
2022/09/27 04:31:51;;;;;;;24.13;10.90;;;;;;;;;;5032306;28;20771;-46
2022/09/27 04:34:17;;;;;;;24.30;13.53;;;;;;;;;;5046169;28;20460;-47
2022/09/27 04:36:43;;;;;;;34.93;15.30;;;;;;;;;;5038954;28;20441;-47
2022/09/27 04:39:09;;;;;;;31.67;15.67;;;;;;;;;;5045154;28;20433;-46
2022/09/27 04:41:35;;;;;;;32.37;16.30;;;;;;;;;;5030627;28;20434;-46
2022/09/27 04:44:01;;;;;;;33.67;15.87;;;;;;;;;;5037026;28;20424;-46
2022/09/27 04:46:31;;;;;;;30.33;16.13;;;;;;;;;;5036402;28;20810;-46
2022/09/27 04:49:00;;;;;;;32.53;16.70;;;;;;;;;;5029948;28;20458;-46
2022/09/27 04:51:26;;;;;;;33.20;16.47;;;;;;;;;;5030650;28;20789;-47
2022/09/27 04:53:52;;;;;;;35.03;17.60;;;;;;;;;;5036715;28;20418;-46
2022/09/27 04:56:18;;;;;;;30.63;15.57;;;;;;;;;;5035200;28;20412;-46
2022/09/27 04:58:44;;;;;;;31.60;16.30;;;;;;;;;;5041813;28;20476;-45
2022/09/27 05:01:10;;;;;;;32.97;18.37;;;;;;;;;;5050418;28;20413;-46
2022/09/27 05:03:36;;;;;;;34.63;15.63;;;;;;;;;;5043596;28;20476;-47
2022/09/27 05:06:02;;;;;;;26.93;15.70;;;;;;;;;;5047345;28;20413;-46
2022/09/27 05:08:29;;;;;;;28.43;15.40;;;;;;;;;;5030491;28;20476;-46
2022/09/27 05:10:55;;;;;;;27.80;15.23;;;;;;;;;;5043324;28;20757;-46
2022/09/27 05:13:21;;;;;;;23.53;13.27;;;;;;;;;;5041019;28;20417;-45
2022/09/27 05:15:47;;;;;;;49.87;13.53;;;;;;;;;;5046534;28;20423;-45
2022/09/27 05:18:13;;;;;;;29.70;14.87;;;;;;;;;;5030579;28;20969;-47
2022/09/27 05:20:39;;;;;;;30.30;12.30;;;;;;;;;;5037878;28;20913;-46
2022/09/27 05:23:05;;;;;;;35.33;13.93;;;;;;;;;;5050095;28;20419;-45
2022/09/27 05:25:32;;;;;;;20.57;11.63;;;;;;;;;;5036644;28;20495;-45
2022/09/27 05:27:58;;;;;;;27.33;11.80;;;;;;;;;;5034331;28;21009;-46
2022/09/27 05:30:26;;;;;;;25.87;11.47;;;;;;;;;;5046114;28;20418;-46
2022/09/27 05:32:52;;;;;;;20.80;12.03;;;;;;;;;;5048442;28;20443;-46
2022/09/27 05:35:18;;;;;;;23.50;12.13;;;;;;;;;;5045424;28;20428;-46
2022/09/27 05:37:54;;;;;;;22.17;11.50;;;;;;;;;;5038513;28;20490;-46
2022/09/27 05:40:24;;;;;;;30.37;13.37;;;;;;;;;;5045003;28;20416;-47
2022/09/27 05:42:51;;;;;;;43.97;14.87;;;;;;;;;;5038933;28;20431;-46
2022/09/27 05:45:17;;;;;;;23.43;13.33;;;;;;;;;;5035304;28;20424;-46
2022/09/27 05:47:43;;;;;;;26.73;14.57;;;;;;;;;;5048925;28;20506;-45
2022/09/27 05:50:09;;;;;;;31.87;13.83;;;;;;;;;;5038357;28;20446;-46
2022/09/27 05:52:35;;;;;;;27.10;14.20;;;;;;;;;;5036326;28;20420;-46
2022/09/27 05:55:02;;;;;;;23.53;14.30;;;;;;;;;;5042953;28;20964;-46
2022/09/27 05:57:28;;;;;;;25.73;15.07;;;;;;;;;;5048083;28;20517;-47
2022/09/27 05:59:54;;;;;;;25.30;15.17;;;;;;;;;;5033558;28;20948;-46
2022/09/27 06:02:20;;;;;;;27.20;15.47;;;;;;;;;;5042063;28;20484;-46
2022/09/27 06:04:46;;;;;;;25.20;14.67;;;;;;;;;;5041195;28;20451;-46
2022/09/27 06:07:12;;;;;;;35.73;17.87;;;;;;;;;;5053466;28;20836;-46
2022/09/27 06:09:38;;;;;;;24.27;15.63;;;;;;;;;;5033570;28;20501;-46
2022/09/27 06:12:04;;;;;;;29.80;15.27;;;;;;;;;;5047493;28;20415;-47
2022/09/27 06:14:30;;;;;;;20.63;14.27;;;;;;;;;;5049524;28;20417;-46
2022/09/27 06:16:56;;;;;;;28.93;14.17;;;;;;;;;;5036377;28;20817;-47
2022/09/27 06:19:22;;;;;;;29.90;14.60;;;;;;;;;;5044953;28;20456;-47
2022/09/27 06:21:50;;;;;;;29.13;12.43;;;;;;;;;;5053996;28;20434;-47
2022/09/27 06:24:16;;;;;;;19.90;12.97;;;;;;;;;;5046200;28;20921;-46
2022/09/27 06:26:42;;;;;;;17.93;12.13;;;;;;;;;;5041123;28;20523;-47
2022/09/27 06:29:08;;;;;;;22.43;12.17;;;;;;;;;;5033439;28;20410;-46
2022/09/27 06:31:34;;;;;;;18.93;11.33;;;;;;;;;;5036767;28;20418;-47
2022/09/27 06:34:01;;;;;;;21.93;11.73;;;;;;;;;;5039123;28;20760;-47
2022/09/27 06:36:27;;;;;;;23.50;12.23;;;;;;;;;;5053460;28;20467;-46
2022/09/27 06:38:53;;;;;;;20.50;10.53;;;;;;;;;;5040247;28;20844;-47
2022/09/27 06:41:19;;;;;;;15.13;9.90;;;;;;;;;;5033715;28;20424;-46
2022/09/27 06:43:45;;;;;;;16.73;10.37;;;;;;;;;;5044383;28;20464;-47
2022/09/27 06:46:11;;;;;;;15.43;9.90;;;;;;;;;;5052094;28;20421;-46
2022/09/27 06:48:38;;;;;;;13.57;9.37;;;;;;;;;;5034231;28;20472;-45
2022/09/27 06:51:04;;;;;;;14.50;9.40;;;;;;;;;;5047718;28;20417;-47
2022/09/27 06:53:30;;;;;;;12.63;9.00;;;;;;;;;;5038132;28;20441;-46
2022/09/27 06:56:02;;;;;;;14.47;6.93;;;;;;;;;;5043704;28;20420;-46
2022/09/27 07:01:14;;;;;;;14.50;7.60;;;;;;;;;;5034289;28;20475;-47
2022/09/27 07:03:43;;;;;;;9.40;6.40;;;;;;;;;;5048342;28;20440;-47
2022/09/27 07:06:19;;;;;;;10.97;5.63;;;;;;;;;;5050210;28;20452;-47
2022/09/27 07:08:45;;;;;;;8.67;5.67;;;;;;;;;;5052727;28;20465;-45
2022/09/27 07:11:11;;;;;;;9.10;4.73;;;;;;;;;;5035072;28;20424;-46
2022/09/27 07:13:41;;;;;;;10.17;5.20;;;;;;;;;;5034145;28;20410;-45
2022/09/27 07:16:07;;;;;;;5.80;4.10;;;;;;;;;;5044709;28;20419;-47
2022/09/27 07:18:33;;;;;;;6.10;4.50;;;;;;;;;;5042099;28;20808;-46
2022/09/27 07:21:00;;;;;;;7.13;3.60;;;;;;;;;;5040365;28;20419;-47
2022/09/27 07:23:26;;;;;;;6.83;4.20;;;;;;;;;;5052858;28;20405;-46
2022/09/27 07:25:52;;;;;;;5.80;3.80;;;;;;;;;;5046905;28;20413;-46
2022/09/27 07:28:19;;;;;;;10.17;4.27;;;;;;;;;;5052092;28;20889;-46
2022/09/27 07:30:45;;;;;;;12.50;3.50;;;;;;;;;;5037997;28;20781;-47
2022/09/27 07:33:11;;;;;;;7.00;5.00;;;;;;;;;;5033792;28;20424;-47
2022/09/27 07:35:42;;;;;;;6.87;5.30;;;;;;;;;;5039863;28;20427;-46
2022/09/27 07:38:12;;;;;;;5.80;4.00;;;;;;;;;;5046484;28;20898;-46
2022/09/27 07:40:38;;;;;;;7.93;4.60;;;;;;;;;;5032183;28;20429;-46
2022/09/27 07:43:05;;;;;;;5.53;4.53;;;;;;;;;;5044548;28;20431;-47
2022/09/27 07:45:32;;;;;;;8.00;5.37;;;;;;;;;;5045567;28;20418;-46
2022/09/27 07:47:58;;;;;;;5.73;4.30;;;;;;;;;;5038088;28;20533;-45
2022/09/27 07:50:25;;;;;;;7.40;4.03;;;;;;;;;;5047068;28;20415;-46
2022/09/27 07:52:52;;;;;;;10.00;5.67;;;;;;;;;;5033476;28;20424;-47
2022/09/27 07:55:18;;;;;;;5.17;3.97;;;;;;;;;;5038166;28;20474;-46
2022/09/27 07:57:45;;;;;;;6.00;4.80;;;;;;;;;;5031816;28;20543;-45
2022/09/27 08:00:13;;;;;;;6.93;5.17;;;;;;;;;;5041273;28;20823;-45
2022/09/27 08:02:41;;;;;;;7.53;5.20;;;;;;;;;;5051807;28;20928;-45
2022/09/27 08:05:07;;;;;;;18.00;5.97;;;;;;;;;;5036293;28;20460;-46
2022/09/27 08:07:33;;;;;;;7.33;6.00;;;;;;;;;;5050227;28;20843;-46
2022/09/27 08:09:59;;;;;;;6.77;6.07;;;;;;;;;;5043913;28;20501;-46
2022/09/27 08:12:25;;;;;;;6.63;5.10;;;;;;;;;;5031944;28;20445;-45
2022/09/27 08:14:51;;;;;;;6.27;5.33;;;;;;;;;;5038719;28;20821;-48
2022/09/27 08:17:18;;;;;;;6.17;5.60;;;;;;;;;;5040560;28;20473;-46
2022/09/27 08:19:44;;;;;;;7.13;5.37;;;;;;;;;;5049126;28;20429;-46
2022/09/27 08:22:12;;;;;;;10.10;4.70;;;;;;;;;;5043426;28;20414;-46
2022/09/27 08:24:38;;;;;;;5.03;3.97;;;;;;;;;;5036498;28;20432;-46
2022/09/27 08:27:06;;;;;;;7.67;4.20;;;;;;;;;;5042233;28;20872;-46
2022/09/27 08:29:33;;;;;;;6.30;3.63;;;;;;;;;;5044146;28;20497;-46
2022/09/27 08:31:59;;;;;;;3.83;3.40;;;;;;;;;;5043934;28;20413;-46
2022/09/27 08:34:27;;;;;;;4.70;3.63;;;;;;;;;;5034735;28;20493;-47
2022/09/27 08:36:54;;;;;;;9.53;4.20;;;;;;;;;;5043791;28;20925;-45
2022/09/27 08:39:20;;;;;;;3.23;3.00;;;;;;;;;;5031279;28;20429;-48
2022/09/27 08:41:52;;;;;;;7.43;4.30;;;;;;;;;;5031627;28;20409;-46
2022/09/27 08:44:37;;;;;;;5.33;4.40;;;;;;;;;;5048175;28;20522;-46
2022/09/27 08:47:03;;;;;;;5.23;4.70;;;;;;;;;;5040271;28;20453;-46
2022/09/27 08:49:49;;;;;;;10.77;5.23;;;;;;;;;;5046736;28;20421;-46
2022/09/27 08:52:20;;;;;;;4.70;4.13;;;;;;;;;;5034322;28;20757;-47
2022/09/27 08:54:47;;;;;;;4.13;3.73;;;;;;;;;;5037397;28;20914;-46
2022/09/27 08:57:13;;;;;;;3.10;2.90;;;;;;;;;;5041221;28;20438;-48
2022/09/27 08:59:40;;;;;;;4.30;3.80;;;;;;;;;;5036016;28;20419;-48
2022/09/27 09:02:14;;;;;;;3.47;3.17;;;;;;;;;;5053987;28;20449;-47
2022/09/27 09:04:41;;;;;;;6.43;3.50;;;;;;;;;;5053787;28;20414;-46
2022/09/27 09:07:16;;;;;;;3.03;2.80;;;;;;;;;;5044942;28;20450;-44
2022/09/27 09:09:57;;;;;;;6.13;3.53;;;;;;;;;;5046690;28;20415;-45
2022/09/27 09:12:48;;;;;;;6.77;3.10;;;;;;;;;;5050559;28;20456;-45
2022/09/27 09:15:32;;;;;;;3.27;3.07;;;;;;;;;;5035440;28;20739;-45
2022/09/27 09:18:30;;;;;;;5.77;3.10;;;;;;;;;;5035413;28;20467;-44
2022/09/27 09:21:02;;;;;;;3.67;3.37;;;;;;;;;;5035299;28;20439;-45
2022/09/27 09:23:28;;;;;;;3.90;3.20;;;;;;;;;;5034326;28;20497;-46
2022/09/27 09:26:13;;;;;;;4.10;3.67;;;;;;;;;;5054152;28;20910;-45
2022/09/27 09:28:45;;;;;;;3.63;3.43;;;;;;;;;;5054297;28;20467;-45
2022/09/27 09:31:24;;;;;;;4.27;3.83;;;;;;;;;;5040006;28;20932;-46
2022/09/27 09:33:56;;;;;;;3.97;3.53;;;;;;;;;;5035035;28;20450;-45
2022/09/27 09:36:29;;;;;;;5.80;3.13;;;;;;;;;;5050543;28;20523;-46
2022/09/27 09:38:56;;;;;;;6.43;4.40;;;;;;;;;;5054697;28;20874;-46
2022/09/27 09:41:30;;;;;;;3.53;2.60;;;;;;;;;;5038666;28;20428;-46
2022/09/27 09:43:59;;;;;;;3.07;2.80;;;;;;;;;;5034453;28;20394;-47
2022/09/27 09:46:30;;;;;;;3.33;3.10;;;;;;;;;;5038435;28;20468;-48
2022/09/27 09:49:03;;;;;;;3.33;3.03;;;;;;;;;;5034033;28;20434;-47
2022/09/27 09:51:34;;;;;;;3.87;2.73;;;;;;;;;;5035053;28;20450;-46
2022/09/27 09:54:12;;;;;;;3.83;2.87;;;;;;;;;;5034313;28;20401;-48
2022/09/27 09:56:50;;;;;;;3.93;3.00;;;;;;;;;;5054341;28;20416;-45
2022/09/27 09:59:24;;;;;;;2.60;2.40;;;;;;;;;;5053292;28;20401;-45
2022/09/27 10:01:51;;;;;;;3.93;3.53;;;;;;;;;;5034460;28;20427;-45
2022/09/27 10:04:23;;;;;;;6.17;2.97;;;;;;;;;;5040886;28;20405;-46
2022/09/27 10:06:51;;;;;;;3.13;2.93;;;;;;;;;;5054169;28;20759;-45
2022/09/27 10:09:18;;;;;;;3.20;2.90;;;;;;;;;;5053525;28;20413;-46
2022/09/27 10:11:45;;;;;;;3.37;3.17;;;;;;;;;;5049794;28;20437;-45
2022/09/27 10:14:12;;;;;;;6.23;3.50;;;;;;;;;;5033988;28;20402;-45
2022/09/27 10:16:41;;;;;;;3.93;3.67;;;;;;;;;;5053456;28;20782;-45
2022/09/27 10:19:07;;;;;;;3.93;3.00;;;;;;;;;;5053407;28;20406;-46
2022/09/27 10:21:33;;;;;;;3.43;3.23;;;;;;;;;;5036257;28;20410;-45
2022/09/27 10:24:04;;;;;;;4.00;3.63;;;;;;;;;;5033835;28;20425;-45
2022/09/27 10:26:30;;;;;;;4.77;4.37;;;;;;;;;;5050382;28;20420;-44
2022/09/27 10:28:57;;;;;;;4.93;4.57;;;;;;;;;;5053397;28;20393;-46
2022/09/27 10:31:23;;;;;;;5.27;4.43;;;;;;;;;;5037862;28;20406;-46
2022/09/27 10:33:58;;;;;;;4.93;4.63;;;;;;;;;;5033326;28;20909;-47
2022/09/27 10:36:34;;;;;;;4.03;3.70;;;;;;;;;;5048970;28;20654;-46
2022/09/27 10:39:03;;;;;;;5.47;4.97;;;;;;;;;;5053471;28;20451;-46
2022/09/27 10:41:32;;;;;;;4.43;3.93;;;;;;;;;;5041993;28;20475;-45
2022/09/27 10:44:17;;;;;;;4.40;4.10;;;;;;;;;;5040420;28;20780;-45
2022/09/27 10:46:44;;;;;;;5.67;3.97;;;;;;;;;;5033572;28;20415;-47
2022/09/27 10:49:17;;;;;;;4.43;4.00;;;;;;;;;;5050142;28;20496;-45
2022/09/27 10:51:46;;;;;;;3.43;3.20;;;;;;;;;;5044032;28;20464;-45
2022/09/27 10:54:44;;;;;;;5.00;3.70;;;;;;;;;;5033389;28;20429;-46
2022/09/27 10:57:20;;;;;;;3.47;3.27;;;;;;;;;;5032599;28;20482;-46
2022/09/27 10:59:50;;;;;;;4.07;3.70;;;;;;;;;;5033013;28;20406;-46
2022/09/27 11:02:20;;;;;;;3.70;3.43;;;;;;;;;;5049207;28;20925;-47
2022/09/27 11:05:02;;;;;;;3.70;3.37;;;;;;;;;;5051165;28;20406;-46
2022/09/27 11:07:28;;;;;;;3.57;3.37;;;;;;;;;;5035271;28;20986;-46
2022/09/27 11:10:01;;;;;;;3.63;3.30;;;;;;;;;;5032141;28;20423;-46
2022/09/27 11:12:27;;;;;;;10.40;3.13;;;;;;;;;;5037819;28;20425;-46
2022/09/27 11:14:58;;;;;;;3.73;3.23;;;;;;;;;;5052710;28;20401;-46
2022/09/27 11:17:26;;;;;;;6.63;3.07;;;;;;;;;;5053088;28;20421;-46
2022/09/27 11:19:58;;;;;;;4.07;2.60;;;;;;;;;;5050909;28;20425;-46
2022/09/27 11:22:27;;;;;;;3.10;2.90;;;;;;;;;;5052268;28;20758;-47
2022/09/27 11:25:11;;;;;;;2.83;2.50;;;;;;;;;;5049742;28;20463;-46
2022/09/27 11:27:48;;;;;;;3.80;2.57;;;;;;;;;;5047331;28;20470;-45
2022/09/27 11:30:16;;;;;;;3.83;2.50;;;;;;;;;;5032758;28;20489;-45
2022/09/27 11:32:49;;;;;;;3.93;2.43;;;;;;;;;;5033660;28;20400;-45
2022/09/27 11:35:33;;;;;;;4.63;1.90;;;;;;;;;;5052145;28;20424;-46
2022/09/27 11:38:01;;;;;;;1.70;1.60;;;;;;;;;;5051616;28;20502;-45
2022/09/27 11:40:46;;;;;;;2.50;1.80;;;;;;;;;;5032231;28;20410;-45
2022/09/27 11:43:12;;;;;;;2.13;1.93;;;;;;;;;;5034538;28;20473;-44
2022/09/27 11:45:40;;;;;;;1.77;1.67;;;;;;;;;;5045797;28;20429;-45
2022/09/27 11:48:06;;;;;;;1.80;1.70;;;;;;;;;;5039630;28;20827;-45
2022/09/27 11:50:45;;;;;;;2.70;1.83;;;;;;;;;;5033620;28;20407;-45
2022/09/27 11:53:30;;;;;;;2.30;1.77;;;;;;;;;;5032873;28;20430;-45
2022/09/27 11:56:06;;;;;;;6.60;2.50;;;;;;;;;;5052472;28;20429;-45
2022/09/27 11:58:59;;;;;;;6.70;3.10;;;;;;;;;;5048007;28;20519;-44
2022/09/27 12:01:43;;;;;;;5.83;2.80;;;;;;;;;;5039308;28;20427;-46
2022/09/27 12:04:21;;;;;;;5.00;2.40;;;;;;;;;;5043174;28;20422;-45
2022/09/27 12:06:55;;;;;;;2.80;2.60;;;;;;;;;;5030927;28;20916;-45
2022/09/27 12:09:23;;;;;;;3.27;2.70;;;;;;;;;;5032110;28;20417;-45
2022/09/27 12:11:51;;;;;;;3.13;2.83;;;;;;;;;;5032100;28;20413;-45
2022/09/27 12:14:37;;;;;;;3.63;2.60;;;;;;;;;;5039382;28;20502;-45
2022/09/27 12:17:09;;;;;;;4.60;2.90;;;;;;;;;;5051812;28;20441;-45
2022/09/27 12:19:38;;;;;;;5.40;3.43;;;;;;;;;;5041624;28;20554;-46
2022/09/27 12:22:05;;;;;;;3.83;3.60;;;;;;;;;;5031951;28;20430;-45
2022/09/27 12:24:32;;;;;;;4.23;3.80;;;;;;;;;;5040035;28;20424;-45
2022/09/27 12:27:01;;;;;;;5.00;4.00;;;;;;;;;;5043827;28;20469;-45
2022/09/27 12:29:35;;;;;;;4.27;3.87;;;;;;;;;;5031395;28;20909;-46
2022/09/27 12:32:19;;;;;;;4.20;3.70;;;;;;;;;;5039096;28;20505;-47
2022/09/27 12:34:54;;;;;;;6.20;4.17;;;;;;;;;;5037340;28;20414;-45
2022/09/27 12:37:27;;;;;;;6.57;3.80;;;;;;;;;;5042035;28;20510;-45
2022/09/27 12:39:56;;;;;;;3.40;3.20;;;;;;;;;;5031909;28;20425;-45
2022/09/27 12:42:32;;;;;;;5.30;3.17;;;;;;;;;;5039189;28;20419;-45
2022/09/27 12:44:59;;;;;;;4.63;2.83;;;;;;;;;;5041754;28;20793;-46
2022/09/27 12:47:33;;;;;;;3.50;3.20;;;;;;;;;;5031389;28;20473;-45
2022/09/27 12:49:59;;;;;;;3.97;3.67;;;;;;;;;;5035554;28;20417;-45
2022/09/27 12:52:29;;;;;;;4.90;3.87;;;;;;;;;;5037260;28;20467;-45
2022/09/27 12:55:15;;;;;;;3.87;3.40;;;;;;;;;;5030286;28;20403;-45
2022/09/27 12:57:55;;;;;;;3.70;3.17;;;;;;;;;;5029920;28;20466;-46
2022/09/27 13:00:26;;;;;;;3.00;2.80;;;;;;;;;;5031179;28;20429;-45
2022/09/27 13:03:01;;;;;;;3.57;3.10;;;;;;;;;;5031770;28;20413;-45
2022/09/27 13:05:29;;;;;;;4.93;4.53;;;;;;;;;;5041106;28;20470;-45
2022/09/27 13:08:14;;;;;;;4.33;4.00;;;;;;;;;;5050671;28;20818;-46
2022/09/27 13:10:52;;;;;;;4.97;3.57;;;;;;;;;;5039128;28;20406;-45
2022/09/27 13:13:20;;;;;;;3.27;2.93;;;;;;;;;;5039188;28;20463;-45
2022/09/27 13:15:48;;;;;;;3.37;2.77;;;;;;;;;;5051278;28;20402;-46
2022/09/27 13:18:29;;;;;;;4.47;4.07;;;;;;;;;;5044652;28;20930;-45
2022/09/27 13:20:55;;;;;;;6.80;3.93;;;;;;;;;;5030976;28;20403;-46
2022/09/27 13:23:21;;;;;;;7.73;4.37;;;;;;;;;;5045617;28;20413;-46
2022/09/27 13:25:47;;;;;;;5.30;4.10;;;;;;;;;;5051236;28;20401;-46
2022/09/27 13:28:23;;;;;;;12.40;5.60;;;;;;;;;;5037238;28;20461;-47
2022/09/27 13:30:49;;;;;;;7.13;5.57;;;;;;;;;;5030673;28;20441;-45
2022/09/27 13:33:15;;;;;;;5.53;4.47;;;;;;;;;;5044456;28;20898;-46
2022/09/27 13:35:42;;;;;;;6.00;4.73;;;;;;;;;;5051107;28;20401;-45
2022/09/27 13:38:22;;;;;;;4.60;4.17;;;;;;;;;;5037641;28;20461;-46
2022/09/27 13:40:48;;;;;;;6.03;4.87;;;;;;;;;;5030018;28;20438;-45
2022/09/27 13:43:19;;;;;;;5.20;4.80;;;;;;;;;;5042984;28;20421;-45
2022/09/27 13:46:07;;;;;;;9.10;5.87;;;;;;;;;;5050810;28;20425;-46
2022/09/27 13:48:52;;;;;;;5.00;4.57;;;;;;;;;;5038337;28;20977;-45
2022/09/27 13:51:17;;;;;;;5.27;4.87;;;;;;;;;;5034902;28;20961;-46
2022/09/27 13:53:55;;;;;;;6.83;4.60;;;;;;;;;;5049025;28;20411;-45
2022/09/27 13:56:39;;;;;;;4.33;3.93;;;;;;;;;;5054764;28;20406;-45
2022/09/27 13:59:09;;;;;;;5.90;3.53;;;;;;;;;;5053302;28;20495;-44
2022/09/27 14:01:40;;;;;;;3.53;3.23;;;;;;;;;;5054634;28;20397;-45
2022/09/27 14:04:14;;;;;;;3.33;2.97;;;;;;;;;;5034390;28;20513;-46
2022/09/27 14:06:49;;;;;;;6.23;3.27;;;;;;;;;;5034490;28;20414;-45
2022/09/27 14:09:26;;;;;;;4.17;3.10;;;;;;;;;;5033699;28;20494;-45
2022/09/27 14:11:54;;;;;;;6.00;3.00;;;;;;;;;;5039768;28;20810;-44
2022/09/27 14:14:23;;;;;;;4.70;3.10;;;;;;;;;;5054119;28;20954;-45
2022/09/27 14:16:49;;;;;;;4.53;4.13;;;;;;;;;;5052247;28;20476;-45
2022/09/27 14:19:17;;;;;;;4.20;3.73;;;;;;;;;;5053617;28;20812;-45
2022/09/27 14:21:45;;;;;;;3.87;3.33;;;;;;;;;;5052327;28;20845;-46
2022/09/27 14:24:21;;;;;;;6.30;3.27;;;;;;;;;;5053772;28;20405;-45
2022/09/27 14:26:50;;;;;;;3.90;3.60;;;;;;;;;;5039627;28;20959;-45
2022/09/27 14:29:21;;;;;;;3.23;2.87;;;;;;;;;;5032966;28;20417;-45
2022/09/27 14:31:48;;;;;;;6.23;3.60;;;;;;;;;;5035641;28;20487;-46
2022/09/27 14:34:14;;;;;;;8.70;3.50;;;;;;;;;;5054284;28;20402;-46
2022/09/27 14:39:31;;;;;;;7.57;5.83;;;;;;;;;;5032949;28;20810;-45
2022/09/27 14:41:57;;;;;;;9.80;3.67;;;;;;;;;;5037285;28;20414;-45
2022/09/27 14:44:25;;;;;;;6.00;3.47;;;;;;;;;;5047448;28;20487;-45
2022/09/27 14:47:28;;;;;;;4.03;3.70;;;;;;;;;;5053620;28;20420;-45
2022/09/27 14:50:02;;;;;;;6.27;3.33;;;;;;;;;;5019299;28;20426;-46
2022/09/27 14:52:31;;;;;;;4.70;3.80;;;;;;;;;;5033220;28;20415;-47
2022/09/27 14:54:57;;;;;;;5.13;3.90;;;;;;;;;;5033654;28;20429;-45
2022/09/27 14:57:24;;;;;;;3.50;3.20;;;;;;;;;;5032897;28;20426;-45
2022/09/27 14:59:49;;;;;;;7.20;3.50;;;;;;;;;;5032522;28;20939;-46